Terminal Aerodrome Forecast
Issued by NWS

Home | Current Version | Previous Version | Graphics & Text | Print | Product List | Glossary On
Versions: 1 2 3 4 5 6 7 8 9 10 11 12 13 14
000
FTUS43 KMPX 172341
TAFAXN
TAF
KAXN 172341Z 1800/1824 09008KT P6SM BKN150
     FM181000 07007KT P6SM OVC030
     FM181200 03011KT P6SM OVC015
     FM182100 03010KT P6SM OVC028=

USA.gov is the U.S. government's official web portal to all federal, state and local government web resources and services.